sensor_id;sensor_type;location;lat;lon;timestamp;P1;durP1;ratioP1;P2;durP2;ratioP2
15480;SDS011;7842;50.904;6.670;2022-08-01T00:01:15;3.90;;;2.23;;
15480;SDS011;7842;50.904;6.670;2022-08-01T00:03:40;2.42;;;1.80;;
15480;SDS011;7842;50.904;6.670;2022-08-01T00:06:06;2.83;;;2.00;;
15480;SDS011;7842;50.904;6.670;2022-08-01T00:08:32;2.30;;;2.00;;
15480;SDS011;7842;50.904;6.670;2022-08-01T00:10:57;3.30;;;2.00;;
15480;SDS011;7842;50.904;6.670;2022-08-01T00:13:23;3.13;;;2.03;;
15480;SDS011;7842;50.904;6.670;2022-08-01T00:15:49;2.85;;;1.90;;
15480;SDS011;7842;50.904;6.670;2022-08-01T00:18:14;3.27;;;2.07;;
15480;SDS011;7842;50.904;6.670;2022-08-01T00:20:40;2.03;;;1.83;;
15480;SDS011;7842;50.904;6.670;2022-08-01T00:23:05;2.27;;;2.00;;
15480;SDS011;7842;50.904;6.670;2022-08-01T00:25:31;3.45;;;2.17;;
15480;SDS011;7842;50.904;6.670;2022-08-01T00:27:57;2.87;;;1.90;;
15480;SDS011;7842;50.904;6.670;2022-08-01T00:30:22;3.83;;;2.20;;
15480;SDS011;7842;50.904;6.670;2022-08-01T00:32:48;2.53;;;2.10;;
15480;SDS011;7842;50.904;6.670;2022-08-01T00:35:13;4.70;;;2.28;;
15480;SDS011;7842;50.904;6.670;2022-08-01T00:37:39;2.97;;;2.50;;
15480;SDS011;7842;50.904;6.670;2022-08-01T00:40:05;3.37;;;2.27;;
15480;SDS011;7842;50.904;6.670;2022-08-01T00:42:32;2.67;;;2.30;;
15480;SDS011;7842;50.904;6.670;2022-08-01T00:44:57;3.92;;;2.50;;
15480;SDS011;7842;50.904;6.670;2022-08-01T00:47:23;2.43;;;2.10;;
15480;SDS011;7842;50.904;6.670;2022-08-01T00:49:49;2.47;;;2.13;;
15480;SDS011;7842;50.904;6.670;2022-08-01T00:52:14;2.42;;;2.13;;
15480;SDS011;7842;50.904;6.670;2022-08-01T00:54:40;4.03;;;2.57;;
15480;SDS011;7842;50.904;6.670;2022-08-01T00:57:06;2.60;;;2.40;;
15480;SDS011;7842;50.904;6.670;2022-08-01T00:59:32;2.92;;;2.25;;
15480;SDS011;7842;50.904;6.670;2022-08-01T01:01:59;3.58;;;2.70;;
15480;SDS011;7842;50.904;6.670;2022-08-01T01:04:25;3.83;;;2.40;;
15480;SDS011;7842;50.904;6.670;2022-08-01T01:14:38;3.08;;;2.58;;
15480;SDS011;7842;50.904;6.670;2022-08-01T01:17:16;3.03;;;2.10;;
15480;SDS011;7842;50.904;6.670;2022-08-01T01:19:47;3.92;;;2.47;;
15480;SDS011;7842;50.904;6.670;2022-08-01T01:29:54;2.70;;;2.40;;
15480;SDS011;7842;50.904;6.670;2022-08-01T01:34:47;3.05;;;2.47;;
15480;SDS011;7842;50.904;6.670;2022-08-01T01:37:16;3.00;;;2.40;;
15480;SDS011;7842;50.904;6.670;2022-08-01T01:39:43;3.20;;;2.38;;
15480;SDS011;7842;50.904;6.670;2022-08-01T01:42:10;2.78;;;2.42;;
15480;SDS011;7842;50.904;6.670;2022-08-01T01:44:37;3.30;;;2.42;;
15480;SDS011;7842;50.904;6.670;2022-08-01T01:47:04;3.15;;;2.38;;
15480;SDS011;7842;50.904;6.670;2022-08-01T01:49:30;2.90;;;2.60;;
15480;SDS011;7842;50.904;6.670;2022-08-01T01:51:57;3.58;;;2.53;;
15480;SDS011;7842;50.904;6.670;2022-08-01T01:54:24;3.30;;;2.40;;
15480;SDS011;7842;50.904;6.670;2022-08-01T01:56:53;2.75;;;2.40;;
15480;SDS011;7842;50.904;6.670;2022-08-01T01:59:21;2.20;;;2.00;;
15480;SDS011;7842;50.904;6.670;2022-08-01T02:01:51;2.65;;;2.30;;
15480;SDS011;7842;50.904;6.670;2022-08-01T02:04:17;2.67;;;2.30;;
15480;SDS011;7842;50.904;6.670;2022-08-01T02:06:46;2.75;;;2.30;;
15480;SDS011;7842;50.904;6.670;2022-08-01T02:09:14;2.55;;;2.20;;
15480;SDS011;7842;50.904;6.670;2022-08-01T02:11:41;3.87;;;2.40;;
15480;SDS011;7842;50.904;6.670;2022-08-01T02:14:07;2.90;;;2.10;;
15480;SDS011;7842;50.904;6.670;2022-08-01T02:16:35;2.90;;;2.42;;
15480;SDS011;7842;50.904;6.670;2022-08-01T02:19:02;2.78;;;2.20;;
15480;SDS011;7842;50.904;6.670;2022-08-01T02:24:03;3.10;;;2.30;;
15480;SDS011;7842;50.904;6.670;2022-08-01T02:26:33;2.47;;;2.15;;
15480;SDS011;7842;50.904;6.670;2022-08-01T02:29:01;2.58;;;2.25;;
15480;SDS011;7842;50.904;6.670;2022-08-01T02:31:28;2.90;;;2.35;;
15480;SDS011;7842;50.904;6.670;2022-08-01T02:33:57;2.38;;;2.17;;
15480;SDS011;7842;50.904;6.670;2022-08-01T02:36:27;2.75;;;2.10;;
15480;SDS011;7842;50.904;6.670;2022-08-01T02:38:54;2.60;;;2.40;;
15480;SDS011;7842;50.904;6.670;2022-08-01T02:41:20;2.65;;;2.40;;
15480;SDS011;7842;50.904;6.670;2022-08-01T02:43:49;2.42;;;2.17;;
15480;SDS011;7842;50.904;6.670;2022-08-01T02:46:16;3.40;;;2.83;;
15480;SDS011;7842;50.904;6.670;2022-08-01T02:48:43;3.10;;;2.47;;
15480;SDS011;7842;50.904;6.670;2022-08-01T02:51:10;2.60;;;2.40;;
15480;SDS011;7842;50.904;6.670;2022-08-01T02:53:36;3.17;;;2.50;;
15480;SDS011;7842;50.904;6.670;2022-08-01T02:56:05;2.67;;;2.30;;
15480;SDS011;7842;50.904;6.670;2022-08-01T02:58:32;3.00;;;2.58;;
15480;SDS011;7842;50.904;6.670;2022-08-01T03:00:59;2.40;;;2.15;;
15480;SDS011;7842;50.904;6.670;2022-08-01T03:03:26;2.53;;;2.30;;
15480;SDS011;7842;50.904;6.670;2022-08-01T03:05:52;3.20;;;2.53;;
15480;SDS011;7842;50.904;6.670;2022-08-01T03:08:18;2.95;;;2.65;;
15480;SDS011;7842;50.904;6.670;2022-08-01T03:10:46;2.90;;;2.60;;
15480;SDS011;7842;50.904;6.670;2022-08-01T03:13:13;2.92;;;2.55;;
15480;SDS011;7842;50.904;6.670;2022-08-01T03:15:40;2.90;;;2.60;;
15480;SDS011;7842;50.904;6.670;2022-08-01T03:18:08;3.05;;;2.47;;
15480;SDS011;7842;50.904;6.670;2022-08-01T03:20:36;3.70;;;2.45;;
15480;SDS011;7842;50.904;6.670;2022-08-01T03:23:03;3.90;;;2.50;;
15480;SDS011;7842;50.904;6.670;2022-08-01T03:25:31;2.70;;;2.40;;
15480;SDS011;7842;50.904;6.670;2022-08-01T03:28:01;3.53;;;2.65;;
15480;SDS011;7842;50.904;6.670;2022-08-01T03:30:29;3.05;;;2.75;;
15480;SDS011;7842;50.904;6.670;2022-08-01T03:32:57;3.30;;;2.83;;
15480;SDS011;7842;50.904;6.670;2022-08-01T03:35:23;4.20;;;2.72;;
15480;SDS011;7842;50.904;6.670;2022-08-01T03:37:53;3.28;;;2.85;;
15480;SDS011;7842;50.904;6.670;2022-08-01T03:40:22;3.72;;;2.85;;
15480;SDS011;7842;50.904;6.670;2022-08-01T03:42:52;4.15;;;2.90;;
15480;SDS011;7842;50.904;6.670;2022-08-01T03:45:22;3.85;;;3.05;;
15480;SDS011;7842;50.904;6.670;2022-08-01T03:47:57;4.10;;;2.92;;
15480;SDS011;7842;50.904;6.670;2022-08-01T03:50:25;3.20;;;2.88;;
15480;SDS011;7842;50.904;6.670;2022-08-01T03:52:53;3.88;;;3.40;;
15480;SDS011;7842;50.904;6.670;2022-08-01T03:55:21;4.03;;;3.42;;
15480;SDS011;7842;50.904;6.670;2022-08-01T03:57:48;4.75;;;3.55;;
15480;SDS011;7842;50.904;6.670;2022-08-01T04:00:15;4.43;;;3.40;;
15480;SDS011;7842;50.904;6.670;2022-08-01T04:02:43;4.65;;;3.50;;
15480;SDS011;7842;50.904;6.670;2022-08-01T04:05:13;4.85;;;3.40;;
15480;SDS011;7842;50.904;6.670;2022-08-01T04:07:40;4.07;;;3.67;;
15480;SDS011;7842;50.904;6.670;2022-08-01T04:10:10;5.78;;;3.70;;
15480;SDS011;7842;50.904;6.670;2022-08-01T04:12:36;4.20;;;3.70;;
15480;SDS011;7842;50.904;6.670;2022-08-01T04:15:02;5.20;;;4.00;;
15480;SDS011;7842;50.904;6.670;2022-08-01T04:17:28;5.50;;;4.10;;
15480;SDS011;7842;50.904;6.670;2022-08-01T04:19:53;4.77;;;4.30;;
15480;SDS011;7842;50.904;6.670;2022-08-01T04:22:19;4.40;;;4.00;;
15480;SDS011;7842;50.904;6.670;2022-08-01T04:27:29;7.53;;;5.13;;
15480;SDS011;7842;50.904;6.670;2022-08-01T04:29:58;5.40;;;4.15;;
15480;SDS011;7842;50.904;6.670;2022-08-01T04:32:24;6.32;;;5.35;;
15480;SDS011;7842;50.904;6.670;2022-08-01T04:34:52;6.00;;;4.95;;
15480;SDS011;7842;50.904;6.670;2022-08-01T04:37:22;5.18;;;4.35;;
15480;SDS011;7842;50.904;6.670;2022-08-01T04:39:48;7.78;;;5.85;;
15480;SDS011;7842;50.904;6.670;2022-08-01T04:42:16;6.35;;;5.20;;
15480;SDS011;7842;50.904;6.670;2022-08-01T04:44:42;5.00;;;4.50;;
15480;SDS011;7842;50.904;6.670;2022-08-01T04:47:08;5.80;;;5.20;;
15480;SDS011;7842;50.904;6.670;2022-08-01T04:49:35;5.80;;;5.15;;
15480;SDS011;7842;50.904;6.670;2022-08-01T04:52:02;6.65;;;5.30;;
15480;SDS011;7842;50.904;6.670;2022-08-01T04:54:29;4.82;;;4.18;;
15480;SDS011;7842;50.904;6.670;2022-08-01T04:56:58;4.90;;;4.40;;
15480;SDS011;7842;50.904;6.670;2022-08-01T04:59:25;5.28;;;4.78;;
15480;SDS011;7842;50.904;6.670;2022-08-01T05:02:07;6.57;;;4.80;;
15480;SDS011;7842;50.904;6.670;2022-08-01T05:04:34;4.85;;;4.35;;
15480;SDS011;7842;50.904;6.670;2022-08-01T05:07:00;5.97;;;4.50;;
15480;SDS011;7842;50.904;6.670;2022-08-01T05:09:26;5.05;;;4.47;;
15480;SDS011;7842;50.904;6.670;2022-08-01T05:11:52;6.70;;;5.63;;
15480;SDS011;7842;50.904;6.670;2022-08-01T05:14:17;8.23;;;6.70;;
15480;SDS011;7842;50.904;6.670;2022-08-01T05:16:44;10.40;;;8.00;;
15480;SDS011;7842;50.904;6.670;2022-08-01T05:19:10;11.88;;;9.80;;
15480;SDS011;7842;50.904;6.670;2022-08-01T05:21:36;13.55;;;9.57;;
15480;SDS011;7842;50.904;6.670;2022-08-01T05:24:03;14.38;;;10.30;;
15480;SDS011;7842;50.904;6.670;2022-08-01T05:26:29;13.43;;;9.77;;
15480;SDS011;7842;50.904;6.670;2022-08-01T05:28:55;11.33;;;8.90;;
15480;SDS011;7842;50.904;6.670;2022-08-01T05:31:20;10.50;;;9.03;;
15480;SDS011;7842;50.904;6.670;2022-08-01T05:33:46;12.13;;;9.02;;
15480;SDS011;7842;50.904;6.670;2022-08-01T05:36:12;14.40;;;9.93;;
15480;SDS011;7842;50.904;6.670;2022-08-01T05:38:37;13.38;;;9.70;;
15480;SDS011;7842;50.904;6.670;2022-08-01T05:41:03;11.63;;;8.90;;
15480;SDS011;7842;50.904;6.670;2022-08-01T05:43:29;12.10;;;8.73;;
15480;SDS011;7842;50.904;6.670;2022-08-01T05:45:55;11.80;;;9.35;;
15480;SDS011;7842;50.904;6.670;2022-08-01T05:48:20;11.23;;;8.23;;
15480;SDS011;7842;50.904;6.670;2022-08-01T05:50:46;12.00;;;8.47;;
15480;SDS011;7842;50.904;6.670;2022-08-01T05:53:12;12.00;;;8.40;;
15480;SDS011;7842;50.904;6.670;2022-08-01T05:55:38;11.47;;;9.20;;
15480;SDS011;7842;50.904;6.670;2022-08-01T05:58:04;10.60;;;8.83;;
15480;SDS011;7842;50.904;6.670;2022-08-01T06:00:30;11.05;;;8.63;;
15480;SDS011;7842;50.904;6.670;2022-08-01T06:02:55;10.60;;;8.50;;
15480;SDS011;7842;50.904;6.670;2022-08-01T06:05:21;11.30;;;8.67;;
15480;SDS011;7842;50.904;6.670;2022-08-01T06:07:47;9.43;;;8.20;;
15480;SDS011;7842;50.904;6.670;2022-08-01T06:10:12;10.27;;;7.87;;
15480;SDS011;7842;50.904;6.670;2022-08-01T06:12:38;8.95;;;7.68;;
15480;SDS011;7842;50.904;6.670;2022-08-01T06:15:04;10.80;;;7.97;;
15480;SDS011;7842;50.904;6.670;2022-08-01T06:17:30;10.57;;;7.00;;
15480;SDS011;7842;50.904;6.670;2022-08-01T06:19:56;8.90;;;7.03;;
15480;SDS011;7842;50.904;6.670;2022-08-01T06:22:22;9.30;;;7.47;;
15480;SDS011;7842;50.904;6.670;2022-08-01T06:24:47;8.43;;;7.38;;
15480;SDS011;7842;50.904;6.670;2022-08-01T06:27:13;9.68;;;7.50;;
15480;SDS011;7842;50.904;6.670;2022-08-01T06:29:39;8.70;;;7.43;;
15480;SDS011;7842;50.904;6.670;2022-08-01T06:32:04;9.98;;;8.73;;
15480;SDS011;7842;50.904;6.670;2022-08-01T06:34:31;9.43;;;7.97;;
15480;SDS011;7842;50.904;6.670;2022-08-01T06:36:56;10.07;;;7.80;;
15480;SDS011;7842;50.904;6.670;2022-08-01T06:39:22;9.87;;;8.07;;
15480;SDS011;7842;50.904;6.670;2022-08-01T06:41:48;10.43;;;8.00;;
15480;SDS011;7842;50.904;6.670;2022-08-01T06:44:13;8.70;;;6.85;;
15480;SDS011;7842;50.904;6.670;2022-08-01T06:46:39;10.10;;;7.70;;
15480;SDS011;7842;50.904;6.670;2022-08-01T06:49:04;9.93;;;7.47;;
15480;SDS011;7842;50.904;6.670;2022-08-01T06:51:30;9.33;;;7.57;;
15480;SDS011;7842;50.904;6.670;2022-08-01T06:53:56;9.23;;;7.88;;
15480;SDS011;7842;50.904;6.670;2022-08-01T06:56:22;9.83;;;8.13;;
15480;SDS011;7842;50.904;6.670;2022-08-01T06:58:48;10.18;;;7.45;;
15480;SDS011;7842;50.904;6.670;2022-08-01T07:01:15;8.93;;;7.50;;
15480;SDS011;7842;50.904;6.670;2022-08-01T07:03:41;11.63;;;7.90;;
15480;SDS011;7842;50.904;6.670;2022-08-01T07:06:06;9.55;;;7.28;;
15480;SDS011;7842;50.904;6.670;2022-08-01T07:08:32;8.13;;;7.00;;
15480;SDS011;7842;50.904;6.670;2022-08-01T07:10:57;9.02;;;7.53;;
15480;SDS011;7842;50.904;6.670;2022-08-01T07:13:27;8.67;;;7.07;;
15480;SDS011;7842;50.904;6.670;2022-08-01T07:15:53;8.60;;;7.60;;
15480;SDS011;7842;50.904;6.670;2022-08-01T07:18:19;8.65;;;7.43;;
15480;SDS011;7842;50.904;6.670;2022-08-01T07:20:44;8.13;;;7.32;;
15480;SDS011;7842;50.904;6.670;2022-08-01T07:23:11;8.45;;;7.55;;
15480;SDS011;7842;50.904;6.670;2022-08-01T07:25:37;9.97;;;8.53;;
15480;SDS011;7842;50.904;6.670;2022-08-01T07:28:03;9.77;;;8.77;;
15480;SDS011;7842;50.904;6.670;2022-08-01T07:30:29;9.20;;;8.27;;
15480;SDS011;7842;50.904;6.670;2022-08-01T07:32:55;9.90;;;8.90;;
15480;SDS011;7842;50.904;6.670;2022-08-01T07:35:20;9.13;;;8.23;;
15480;SDS011;7842;50.904;6.670;2022-08-01T07:37:46;8.70;;;7.80;;
15480;SDS011;7842;50.904;6.670;2022-08-01T07:40:12;9.10;;;8.20;;
15480;SDS011;7842;50.904;6.670;2022-08-01T07:42:38;9.45;;;8.50;;
15480;SDS011;7842;50.904;6.670;2022-08-01T07:45:08;8.48;;;7.25;;
15480;SDS011;7842;50.904;6.670;2022-08-01T07:47:34;8.35;;;7.45;;
15480;SDS011;7842;50.904;6.670;2022-08-01T07:50:00;8.03;;;7.20;;
15480;SDS011;7842;50.904;6.670;2022-08-01T07:52:26;9.10;;;8.20;;
15480;SDS011;7842;50.904;6.670;2022-08-01T07:54:52;8.83;;;7.93;;
15480;SDS011;7842;50.904;6.670;2022-08-01T07:57:18;7.97;;;7.18;;
15480;SDS011;7842;50.904;6.670;2022-08-01T07:59:43;7.38;;;6.68;;
15480;SDS011;7842;50.904;6.670;2022-08-01T08:02:09;7.57;;;6.87;;
15480;SDS011;7842;50.904;6.670;2022-08-01T08:04:35;7.72;;;6.93;;
15480;SDS011;7842;50.904;6.670;2022-08-01T08:07:00;7.43;;;6.73;;
15480;SDS011;7842;50.904;6.670;2022-08-01T08:09:26;8.75;;;7.00;;
15480;SDS011;7842;50.904;6.670;2022-08-01T08:11:52;7.73;;;6.40;;
15480;SDS011;7842;50.904;6.670;2022-08-01T08:14:17;9.00;;;6.60;;
15480;SDS011;7842;50.904;6.670;2022-08-01T08:16:43;7.20;;;6.43;;
15480;SDS011;7842;50.904;6.670;2022-08-01T08:19:10;7.60;;;6.80;;
15480;SDS011;7842;50.904;6.670;2022-08-01T08:21:36;8.82;;;7.70;;
15480;SDS011;7842;50.904;6.670;2022-08-01T08:24:02;9.75;;;7.57;;
15480;SDS011;7842;50.904;6.670;2022-08-01T08:26:48;7.88;;;7.07;;
15480;SDS011;7842;50.904;6.670;2022-08-01T08:29:15;7.78;;;6.97;;
15480;SDS011;7842;50.904;6.670;2022-08-01T08:31:41;6.90;;;6.30;;
15480;SDS011;7842;50.904;6.670;2022-08-01T08:34:07;6.30;;;5.70;;
15480;SDS011;7842;50.904;6.670;2022-08-01T08:36:32;7.97;;;6.50;;
15480;SDS011;7842;50.904;6.670;2022-08-01T08:38:58;7.75;;;6.47;;
15480;SDS011;7842;50.904;6.670;2022-08-01T08:41:30;7.35;;;6.55;;
15480;SDS011;7842;50.904;6.670;2022-08-01T08:43:57;6.80;;;6.20;;
15480;SDS011;7842;50.904;6.670;2022-08-01T08:46:26;8.93;;;6.32;;
15480;SDS011;7842;50.904;6.670;2022-08-01T08:48:53;8.30;;;5.70;;
15480;SDS011;7842;50.904;6.670;2022-08-01T08:51:19;5.30;;;4.80;;
15480;SDS011;7842;50.904;6.670;2022-08-01T08:53:48;5.70;;;5.00;;
15480;SDS011;7842;50.904;6.670;2022-08-01T08:56:17;5.05;;;4.65;;
15480;SDS011;7842;50.904;6.670;2022-08-01T08:58:43;5.90;;;5.30;;
15480;SDS011;7842;50.904;6.670;2022-08-01T09:01:10;5.22;;;4.75;;
15480;SDS011;7842;50.904;6.670;2022-08-01T09:03:37;5.50;;;5.00;;
15480;SDS011;7842;50.904;6.670;2022-08-01T09:06:03;6.90;;;5.32;;
15480;SDS011;7842;50.904;6.670;2022-08-01T09:08:29;6.30;;;5.70;;
15480;SDS011;7842;50.904;6.670;2022-08-01T09:10:55;7.13;;;5.97;;
15480;SDS011;7842;50.904;6.670;2022-08-01T09:13:20;6.50;;;5.90;;
15480;SDS011;7842;50.904;6.670;2022-08-01T09:15:47;5.97;;;5.38;;
15480;SDS011;7842;50.904;6.670;2022-08-01T09:18:37;5.83;;;5.33;;
15480;SDS011;7842;50.904;6.670;2022-08-01T09:26:13;5.70;;;4.88;;
15480;SDS011;7842;50.904;6.670;2022-08-01T09:28:40;6.03;;;4.90;;
15480;SDS011;7842;50.904;6.670;2022-08-01T09:31:07;4.90;;;4.40;;
15480;SDS011;7842;50.904;6.670;2022-08-01T09:33:50;4.90;;;4.50;;
15480;SDS011;7842;50.904;6.670;2022-08-01T09:36:48;6.30;;;5.43;;
15480;SDS011;7842;50.904;6.670;2022-08-01T09:39:25;5.88;;;5.25;;
15480;SDS011;7842;50.904;6.670;2022-08-01T09:41:56;5.80;;;4.70;;
15480;SDS011;7842;50.904;6.670;2022-08-01T09:44:39;5.65;;;5.10;;
15480;SDS011;7842;50.904;6.670;2022-08-01T09:47:06;4.85;;;4.45;;
15480;SDS011;7842;50.904;6.670;2022-08-01T09:49:33;5.28;;;4.78;;
15480;SDS011;7842;50.904;6.670;2022-08-01T09:52:22;5.55;;;5.05;;
15480;SDS011;7842;50.904;6.670;2022-08-01T09:54:54;6.53;;;5.45;;
15480;SDS011;7842;50.904;6.670;2022-08-01T09:57:30;5.20;;;4.70;;
15480;SDS011;7842;50.904;6.670;2022-08-01T09:59:57;5.55;;;5.05;;
15480;SDS011;7842;50.904;6.670;2022-08-01T10:05:04;6.25;;;5.65;;
15480;SDS011;7842;50.904;6.670;2022-08-01T10:07:31;7.22;;;6.10;;
15480;SDS011;7842;50.904;6.670;2022-08-01T10:10:13;8.27;;;7.47;;
15480;SDS011;7842;50.904;6.670;2022-08-01T10:12:40;6.75;;;6.10;;
15480;SDS011;7842;50.904;6.670;2022-08-01T10:15:06;6.10;;;5.50;;
15480;SDS011;7842;50.904;6.670;2022-08-01T10:17:33;5.80;;;5.28;;
15480;SDS011;7842;50.904;6.670;2022-08-01T10:20:02;7.57;;;6.73;;
15480;SDS011;7842;50.904;6.670;2022-08-01T10:22:28;6.10;;;5.47;;
15480;SDS011;7842;50.904;6.670;2022-08-01T10:24:56;7.03;;;5.18;;
15480;SDS011;7842;50.904;6.670;2022-08-01T10:27:26;5.93;;;5.25;;
15480;SDS011;7842;50.904;6.670;2022-08-01T10:29:56;6.72;;;6.00;;
15480;SDS011;7842;50.904;6.670;2022-08-01T10:32:28;6.10;;;5.60;;
15480;SDS011;7842;50.904;6.670;2022-08-01T10:34:55;5.40;;;4.90;;
15480;SDS011;7842;50.904;6.670;2022-08-01T10:37:22;6.10;;;5.45;;
15480;SDS011;7842;50.904;6.670;2022-08-01T10:39:48;5.65;;;5.15;;
15480;SDS011;7842;50.904;6.670;2022-08-01T10:42:16;5.90;;;5.30;;
15480;SDS011;7842;50.904;6.670;2022-08-01T10:44:43;6.05;;;5.47;;
15480;SDS011;7842;50.904;6.670;2022-08-01T10:47:14;6.00;;;5.47;;
15480;SDS011;7842;50.904;6.670;2022-08-01T10:49:45;6.82;;;6.22;;
15480;SDS011;7842;50.904;6.670;2022-08-01T10:52:18;7.03;;;6.40;;
15480;SDS011;7842;50.904;6.670;2022-08-01T10:54:44;6.88;;;6.18;;
15480;SDS011;7842;50.904;6.670;2022-08-01T10:57:10;5.78;;;4.93;;
15480;SDS011;7842;50.904;6.670;2022-08-01T10:59:47;6.13;;;5.53;;
15480;SDS011;7842;50.904;6.670;2022-08-01T11:02:25;6.05;;;5.50;;
15480;SDS011;7842;50.904;6.670;2022-08-01T11:04:58;6.03;;;5.43;;
15480;SDS011;7842;50.904;6.670;2022-08-01T11:07:42;7.00;;;6.30;;
15480;SDS011;7842;50.904;6.670;2022-08-01T11:12:48;6.17;;;5.57;;
15480;SDS011;7842;50.904;6.670;2022-08-01T11:17:44;4.97;;;4.57;;
15480;SDS011;7842;50.904;6.670;2022-08-01T11:30:38;3.80;;;3.50;;
15480;SDS011;7842;50.904;6.670;2022-08-01T11:33:16;4.07;;;3.60;;
15480;SDS011;7842;50.904;6.670;2022-08-01T11:36:17;3.40;;;3.10;;
15480;SDS011;7842;50.904;6.670;2022-08-01T11:38:35;3.45;;;3.08;;
15480;SDS011;7842;50.904;6.670;2022-08-01T11:43:59;3.10;;;2.80;;
15480;SDS011;7842;50.904;6.670;2022-08-01T11:57:32;4.25;;;3.85;;
15480;SDS011;7842;50.904;6.670;2022-08-01T12:00:00;3.78;;;3.47;;
15480;SDS011;7842;50.904;6.670;2022-08-01T12:02:32;3.55;;;3.25;;
15480;SDS011;7842;50.904;6.670;2022-08-01T12:05:00;3.60;;;3.30;;
15480;SDS011;7842;50.904;6.670;2022-08-01T12:07:27;3.70;;;3.40;;
15480;SDS011;7842;50.904;6.670;2022-08-01T12:10:17;3.78;;;3.40;;
15480;SDS011;7842;50.904;6.670;2022-08-01T12:13:06;5.50;;;4.32;;
15480;SDS011;7842;50.904;6.670;2022-08-01T12:15:32;4.93;;;4.50;;
15480;SDS011;7842;50.904;6.670;2022-08-01T12:18:00;4.32;;;3.92;;
15480;SDS011;7842;50.904;6.670;2022-08-01T12:20:31;4.50;;;4.10;;
15480;SDS011;7842;50.904;6.670;2022-08-01T12:23:04;4.20;;;3.80;;
15480;SDS011;7842;50.904;6.670;2022-08-01T12:25:32;3.20;;;3.00;;
15480;SDS011;7842;50.904;6.670;2022-08-01T12:28:01;3.75;;;3.45;;
15480;SDS011;7842;50.904;6.670;2022-08-01T12:30:33;3.83;;;3.45;;
15480;SDS011;7842;50.904;6.670;2022-08-01T12:33:00;4.35;;;3.95;;
15480;SDS011;7842;50.904;6.670;2022-08-01T12:35:28;4.40;;;3.80;;
15480;SDS011;7842;50.904;6.670;2022-08-01T12:37:55;4.47;;;4.07;;
15480;SDS011;7842;50.904;6.670;2022-08-01T12:40:24;3.70;;;3.40;;
15480;SDS011;7842;50.904;6.670;2022-08-01T12:42:55;4.20;;;3.80;;
15480;SDS011;7842;50.904;6.670;2022-08-01T12:45:27;4.87;;;4.07;;
15480;SDS011;7842;50.904;6.670;2022-08-01T12:47:54;4.40;;;4.10;;
15480;SDS011;7842;50.904;6.670;2022-08-01T12:50:23;4.05;;;3.72;;
15480;SDS011;7842;50.904;6.670;2022-08-01T12:52:52;3.37;;;3.10;;
15480;SDS011;7842;50.904;6.670;2022-08-01T12:55:21;3.33;;;2.90;;
15480;SDS011;7842;50.904;6.670;2022-08-01T12:57:50;2.80;;;2.60;;
15480;SDS011;7842;50.904;6.670;2022-08-01T13:00:28;3.15;;;2.85;;
15480;SDS011;7842;50.904;6.670;2022-08-01T13:03:04;3.13;;;2.92;;
15480;SDS011;7842;50.904;6.670;2022-08-01T13:08:25;2.50;;;2.30;;
15480;SDS011;7842;50.904;6.670;2022-08-01T13:11:02;2.63;;;2.43;;
15480;SDS011;7842;50.904;6.670;2022-08-01T13:13:39;2.50;;;2.30;;
15480;SDS011;7842;50.904;6.670;2022-08-01T13:16:12;2.93;;;2.73;;
15480;SDS011;7842;50.904;6.670;2022-08-01T13:18:38;3.40;;;3.10;;
15480;SDS011;7842;50.904;6.670;2022-08-01T13:23:33;3.10;;;2.90;;
15480;SDS011;7842;50.904;6.670;2022-08-01T13:25:59;3.20;;;2.60;;
15480;SDS011;7842;50.904;6.670;2022-08-01T13:28:26;3.43;;;2.50;;
15480;SDS011;7842;50.904;6.670;2022-08-01T13:31:03;2.80;;;2.60;;
15480;SDS011;7842;50.904;6.670;2022-08-01T13:33:44;2.70;;;2.50;;
15480;SDS011;7842;50.904;6.670;2022-08-01T13:36:13;2.42;;;2.22;;
15480;SDS011;7842;50.904;6.670;2022-08-01T13:38:39;3.40;;;2.45;;
15480;SDS011;7842;50.904;6.670;2022-08-01T13:41:25;2.60;;;2.40;;
15480;SDS011;7842;50.904;6.670;2022-08-01T13:43:51;2.50;;;2.30;;
15480;SDS011;7842;50.904;6.670;2022-08-01T13:46:17;2.60;;;2.40;;
15480;SDS011;7842;50.904;6.670;2022-08-01T13:48:43;2.35;;;2.17;;
15480;SDS011;7842;50.904;6.670;2022-08-01T13:51:08;2.60;;;2.40;;
15480;SDS011;7842;50.904;6.670;2022-08-01T13:53:34;2.60;;;2.40;;
15480;SDS011;7842;50.904;6.670;2022-08-01T13:56:00;3.40;;;2.38;;
15480;SDS011;7842;50.904;6.670;2022-08-01T13:58:26;2.70;;;2.50;;
15480;SDS011;7842;50.904;6.670;2022-08-01T14:00:53;2.77;;;2.40;;
15480;SDS011;7842;50.904;6.670;2022-08-01T14:03:18;2.70;;;2.50;;
15480;SDS011;7842;50.904;6.670;2022-08-01T14:05:44;2.60;;;2.40;;
15480;SDS011;7842;50.904;6.670;2022-08-01T14:08:10;2.83;;;2.60;;
15480;SDS011;7842;50.904;6.670;2022-08-01T14:10:37;2.95;;;2.28;;
15480;SDS011;7842;50.904;6.670;2022-08-01T14:13:02;2.73;;;2.53;;
15480;SDS011;7842;50.904;6.670;2022-08-01T14:15:28;3.20;;;2.90;;
15480;SDS011;7842;50.904;6.670;2022-08-01T14:17:55;2.90;;;2.70;;
15480;SDS011;7842;50.904;6.670;2022-08-01T14:20:20;2.90;;;2.65;;
15480;SDS011;7842;50.904;6.670;2022-08-01T14:22:46;2.70;;;2.50;;
15480;SDS011;7842;50.904;6.670;2022-08-01T14:25:12;2.67;;;2.47;;
15480;SDS011;7842;50.904;6.670;2022-08-01T14:27:38;2.63;;;2.42;;
15480;SDS011;7842;50.904;6.670;2022-08-01T14:30:05;2.80;;;2.50;;
15480;SDS011;7842;50.904;6.670;2022-08-01T14:32:32;2.60;;;2.40;;
15480;SDS011;7842;50.904;6.670;2022-08-01T14:34:58;2.53;;;2.33;;
15480;SDS011;7842;50.904;6.670;2022-08-01T14:37:24;2.50;;;2.30;;
15480;SDS011;7842;50.904;6.670;2022-08-01T14:39:50;2.63;;;2.30;;
15480;SDS011;7842;50.904;6.670;2022-08-01T14:42:15;2.40;;;2.20;;
15480;SDS011;7842;50.904;6.670;2022-08-01T14:44:41;2.42;;;2.30;;
15480;SDS011;7842;50.904;6.670;2022-08-01T14:47:07;2.60;;;2.40;;
15480;SDS011;7842;50.904;6.670;2022-08-01T14:49:32;2.40;;;2.20;;
15480;SDS011;7842;50.904;6.670;2022-08-01T14:51:58;2.80;;;2.60;;
15480;SDS011;7842;50.904;6.670;2022-08-01T14:54:23;3.20;;;2.40;;
15480;SDS011;7842;50.904;6.670;2022-08-01T14:56:49;2.80;;;2.60;;
15480;SDS011;7842;50.904;6.670;2022-08-01T14:59:17;2.67;;;2.47;;
15480;SDS011;7842;50.904;6.670;2022-08-01T15:01:42;3.17;;;2.70;;
15480;SDS011;7842;50.904;6.670;2022-08-01T15:04:08;2.90;;;2.60;;
15480;SDS011;7842;50.904;6.670;2022-08-01T15:06:33;2.97;;;2.67;;
15480;SDS011;7842;50.904;6.670;2022-08-01T15:08:59;2.60;;;2.40;;
15480;SDS011;7842;50.904;6.670;2022-08-01T15:11:25;4.00;;;2.60;;
15480;SDS011;7842;50.904;6.670;2022-08-01T15:13:50;3.22;;;2.63;;
15480;SDS011;7842;50.904;6.670;2022-08-01T15:16:36;2.72;;;2.50;;
15480;SDS011;7842;50.904;6.670;2022-08-01T15:19:02;2.35;;;2.15;;
15480;SDS011;7842;50.904;6.670;2022-08-01T15:21:28;3.85;;;2.47;;
15480;SDS011;7842;50.904;6.670;2022-08-01T15:23:54;3.43;;;2.33;;
15480;SDS011;7842;50.904;6.670;2022-08-01T15:26:20;4.97;;;2.42;;
15480;SDS011;7842;50.904;6.670;2022-08-01T15:28:45;3.10;;;2.20;;
15480;SDS011;7842;50.904;6.670;2022-08-01T15:31:11;2.90;;;2.15;;
15480;SDS011;7842;50.904;6.670;2022-08-01T15:33:37;2.43;;;2.23;;
15480;SDS011;7842;50.904;6.670;2022-08-01T15:36:03;5.90;;;2.38;;
15480;SDS011;7842;50.904;6.670;2022-08-01T15:38:29;2.40;;;2.20;;
15480;SDS011;7842;50.904;6.670;2022-08-01T15:40:55;2.47;;;2.27;;
15480;SDS011;7842;50.904;6.670;2022-08-01T15:43:20;3.30;;;2.30;;
15480;SDS011;7842;50.904;6.670;2022-08-01T15:45:46;3.90;;;2.10;;
15480;SDS011;7842;50.904;6.670;2022-08-01T15:48:12;2.40;;;2.20;;
15480;SDS011;7842;50.904;6.670;2022-08-01T15:50:38;2.30;;;2.10;;
15480;SDS011;7842;50.904;6.670;2022-08-01T15:53:04;2.73;;;2.10;;
15480;SDS011;7842;50.904;6.670;2022-08-01T15:55:30;2.95;;;2.22;;
15480;SDS011;7842;50.904;6.670;2022-08-01T15:57:56;3.03;;;2.42;;
15480;SDS011;7842;50.904;6.670;2022-08-01T16:00:22;2.80;;;2.10;;
15480;SDS011;7842;50.904;6.670;2022-08-01T16:02:47;2.50;;;2.30;;
15480;SDS011;7842;50.904;6.670;2022-08-01T16:05:13;2.30;;;2.10;;
15480;SDS011;7842;50.904;6.670;2022-08-01T16:07:39;2.70;;;2.20;;
15480;SDS011;7842;50.904;6.670;2022-08-01T16:10:05;2.33;;;2.13;;